createdAt,value
2023-01-25T00:01:53.004Z,0.21
2023-01-25T00:04:40.663Z,0.24
2023-01-25T00:07:28.460Z,0.33
2023-01-25T00:10:16.282Z,0.23
2023-01-25T00:13:04.028Z,0.24
2023-01-25T00:15:51.920Z,0.26
2023-01-25T00:18:39.614Z,0.17
2023-01-25T00:21:27.383Z,0.25
2023-01-25T00:24:15.217Z,0.26
2023-01-25T00:27:03.332Z,0.25
2023-01-25T00:29:52.533Z,0.05
2023-01-25T00:32:53.545Z,0.08
2023-01-25T00:35:41.322Z,0.27
2023-01-25T00:38:35.395Z,0.26
2023-01-25T00:41:25.663Z,0.16
2023-01-25T00:44:14.128Z,0.18
2023-01-25T00:47:02.089Z,0.22
2023-01-25T00:49:50.505Z,0.11
2023-01-25T00:52:38.333Z,0.30
2023-01-25T00:55:26.052Z,0.25
2023-01-25T00:58:13.838Z,0.20
2023-01-25T01:01:01.705Z,0.11
2023-01-25T01:03:52.456Z,0.17
2023-01-25T01:06:41.330Z,0.08
2023-01-25T01:09:29.226Z,0.20
2023-01-25T01:12:18.499Z,0.17
2023-01-25T01:15:07.882Z,0.24
2023-01-25T01:17:56.044Z,0.02
2023-01-25T01:20:49.582Z,0.10
2023-01-25T01:23:39.254Z,0.09
2023-01-25T01:26:27.076Z,0.17
2023-01-25T01:29:14.878Z,0.11
2023-01-25T01:32:02.626Z,0.17
2023-01-25T01:34:50.698Z,0.16
2023-01-25T01:37:42.948Z,-0.14
2023-01-25T01:40:30.491Z,0.16
2023-01-25T01:43:21.067Z,0.17
2023-01-25T01:46:17.777Z,0.28
2023-01-25T01:49:16.685Z,0.24
2023-01-25T01:52:12.973Z,0.15
2023-01-25T01:55:11.945Z,0.21
2023-01-25T01:58:02.955Z,0.09
2023-01-25T02:00:50.725Z,0.02
2023-01-25T02:03:39.849Z,0.29
2023-01-25T02:06:37.383Z,0.23
2023-01-25T02:09:29.012Z,0.24
2023-01-25T02:12:17.684Z,0.19
2023-01-25T02:15:07.050Z,0.21
2023-01-25T02:17:55.131Z,0.25
2023-01-25T02:20:45.439Z,0.33
2023-01-25T02:23:47.932Z,0.36
2023-01-25T02:26:37.912Z,0.37
2023-01-25T02:29:27.924Z,0.31
2023-01-25T02:32:15.570Z,0.24
2023-01-25T02:35:21.390Z,0.23
2023-01-25T02:38:17.808Z,0.17
2023-01-25T02:41:17.089Z,0.24
2023-01-25T02:44:08.930Z,0.27
2023-01-25T02:46:56.745Z,0.06
2023-01-25T02:49:44.466Z,0.27
2023-01-25T02:52:32.217Z,0.11
2023-01-25T02:55:20.035Z,0.07
2023-01-25T02:58:08.725Z,0.24
2023-01-25T03:00:58.218Z,0.14
2023-01-25T03:03:47.208Z,0.12
2023-01-25T03:06:35.967Z,0.26
2023-01-25T03:09:23.982Z,0.20
2023-01-25T03:12:14.191Z,0.07
2023-01-25T03:15:03.286Z,0.18
2023-01-25T03:17:50.937Z,0.22
2023-01-25T03:20:39.561Z,0.22
2023-01-25T03:23:27.156Z,0.26
2023-01-25T03:26:18.198Z,0.10
2023-01-25T03:29:22.255Z,0.16
2023-01-25T03:32:11.686Z,0.13
2023-01-25T03:34:59.444Z,0.18
2023-01-25T03:37:49.047Z,0.22
2023-01-25T03:40:39.827Z,0.25
2023-01-25T03:43:29.249Z,0.20
2023-01-25T03:46:17.140Z,0.28
2023-01-25T03:49:05.299Z,0.15
2023-01-25T03:51:58.355Z,0.16
2023-01-25T03:54:59.694Z,0.07
2023-01-25T03:57:51.277Z,0.14
2023-01-25T04:00:44.948Z,0.18
2023-01-25T04:03:39.550Z,0.15
2023-01-25T04:06:27.622Z,0.19
2023-01-25T04:09:16.349Z,0.16
2023-01-25T04:12:09.487Z,0.21
2023-01-25T04:14:58.549Z,0.06
2023-01-25T04:17:47.055Z,0.09
2023-01-25T04:20:42.285Z,-0.15
2023-01-25T04:23:31.383Z,0.10
2023-01-25T04:26:19.293Z,0.03
2023-01-25T04:29:13.939Z,0.13
2023-01-25T04:32:02.282Z,0.10
2023-01-25T04:34:53.888Z,0.05
2023-01-25T04:37:44.296Z,-0.03
2023-01-25T04:40:33.208Z,0.13
2023-01-25T04:43:26.512Z,0.08
2023-01-25T04:46:19.706Z,0.13
2023-01-25T04:49:07.759Z,0.09
2023-01-25T04:51:56.136Z,0.04
2023-01-25T04:54:44.759Z,0.14
2023-01-25T04:57:33.141Z,-0.02
2023-01-25T05:00:21.289Z,-0.10
2023-01-25T05:03:10.137Z,0.15
2023-01-25T05:05:58.315Z,-0.01
2023-01-25T05:08:47.647Z,-0.07
2023-01-25T05:11:36.056Z,-0.02
2023-01-25T05:14:29.760Z,0.08
2023-01-25T05:17:20.068Z,0.04
2023-01-25T05:20:09.060Z,0.07
2023-01-25T05:22:56.820Z,-0.14
2023-01-25T05:26:03.209Z,0.01
2023-01-25T05:28:53.214Z,-0.03
2023-01-25T05:31:52.603Z,0.13
2023-01-25T05:34:40.926Z,0.12
2023-01-25T05:37:29.233Z,0.10
2023-01-25T05:40:22.747Z,0.16
2023-01-25T05:43:13.643Z,0.08
2023-01-25T05:46:02.782Z,0.16
2023-01-25T05:48:50.581Z,0.15
2023-01-25T05:51:38.787Z,0.11
2023-01-25T05:54:27.293Z,0.13
2023-01-25T05:57:22.355Z,0.09
2023-01-25T06:00:11.500Z,0.22
2023-01-25T06:03:04.523Z,0.31
2023-01-25T06:06:04.439Z,0.29
2023-01-25T06:08:54.472Z,-0.31
2023-01-25T06:11:45.981Z,0.31
2023-01-25T06:14:34.389Z,0.29
2023-01-25T06:17:23.607Z,0.27
2023-01-25T06:20:17.146Z,0.16
2023-01-25T06:23:21.133Z,0.25
2023-01-25T06:26:12.499Z,0.12
2023-01-25T06:29:00.206Z,0.34
2023-01-25T06:31:47.882Z,0.24
2023-01-25T06:34:35.663Z,0.32
2023-01-25T06:37:23.460Z,0.35
2023-01-25T06:40:11.807Z,0.32
2023-01-25T06:43:09.768Z,0.35
2023-01-25T06:46:10.236Z,0.35
2023-01-25T06:48:57.949Z,0.26
2023-01-25T06:51:45.725Z,0.38
2023-01-25T06:54:34.097Z,0.43
2023-01-25T06:57:21.657Z,0.26
2023-01-25T07:00:10.053Z,0.40
2023-01-25T07:02:57.706Z,0.39
2023-01-25T07:05:45.965Z,0.30
2023-01-25T07:08:34.495Z,0.45
2023-01-25T07:11:22.156Z,0.50
2023-01-25T07:14:09.856Z,0.60
2023-01-25T07:16:58.005Z,0.57
2023-01-25T07:19:45.695Z,0.39
2023-01-25T07:22:34.893Z,0.59
2023-01-25T07:25:22.568Z,0.57
2023-01-25T07:28:10.244Z,0.69
2023-01-25T07:31:04.201Z,0.79
2023-01-25T07:33:53.791Z,0.71
2023-01-25T07:36:41.762Z,0.75
2023-01-25T07:39:29.392Z,0.91
2023-01-25T07:42:17.236Z,0.95
2023-01-25T07:45:12.681Z,0.93
2023-01-25T07:48:00.762Z,0.73
2023-01-25T07:51:11.703Z,0.74
2023-01-25T07:54:02.238Z,0.91
2023-01-25T07:56:49.824Z,0.82
2023-01-25T07:59:37.629Z,0.80
2023-01-25T08:02:25.223Z,0.84
2023-01-25T08:05:13.132Z,0.87
2023-01-25T08:08:00.729Z,0.88
2023-01-25T08:10:48.456Z,0.94
2023-01-25T08:13:36.159Z,0.88
2023-01-25T08:16:26.795Z,0.99
2023-01-25T08:19:14.575Z,0.91
2023-01-25T08:22:02.416Z,1.12
2023-01-25T08:24:50.600Z,1.11
2023-01-25T08:27:38.485Z,1.14
2023-01-25T08:30:26.153Z,1.10
2023-01-25T08:33:13.927Z,1.23
2023-01-25T08:36:01.970Z,1.23
2023-01-25T08:38:57.900Z,1.19
2023-01-25T08:41:45.869Z,1.24
2023-01-25T08:44:33.643Z,1.45
2023-01-25T08:47:21.195Z,1.51
2023-01-25T08:50:09.992Z,1.56
2023-01-25T08:52:57.899Z,1.47
2023-01-25T08:55:46.250Z,1.48
2023-01-25T08:58:34.249Z,1.75
2023-01-25T09:01:22.134Z,1.88
2023-01-25T09:04:10.868Z,1.85
2023-01-25T09:06:58.551Z,1.60
2023-01-25T09:09:46.219Z,1.72
2023-01-25T09:12:33.885Z,1.76
2023-01-25T09:15:23.065Z,1.82
2023-01-25T09:18:13.257Z,1.82
2023-01-25T09:21:06.790Z,1.78
2023-01-25T09:24:10.729Z,1.95
2023-01-25T09:27:00.032Z,1.96
2023-01-25T09:30:01.049Z,1.91
2023-01-25T09:32:50.997Z,1.91
2023-01-25T09:35:38.856Z,1.98
2023-01-25T09:38:27.016Z,1.96
2023-01-25T09:41:46.281Z,2.00
2023-01-25T09:44:39.707Z,2.13
2023-01-25T09:47:51.105Z,1.91
2023-01-25T09:51:21.415Z,2.11
2023-01-25T09:54:10.939Z,2.06
2023-01-25T09:56:59.511Z,1.87
2023-01-25T09:59:51.019Z,2.17
2023-01-25T10:02:54.233Z,2.17
2023-01-25T10:05:45.549Z,2.14
2023-01-25T10:08:58.940Z,2.15
2023-01-25T10:11:48.188Z,2.17
2023-01-25T10:14:35.945Z,2.15
2023-01-25T10:17:39.335Z,2.17
2023-01-25T10:20:45.091Z,2.40
2023-01-25T10:24:06.313Z,2.36
2023-01-25T10:27:02.798Z,2.24
2023-01-25T10:29:53.090Z,2.27
2023-01-25T10:32:51.042Z,2.05
2023-01-25T10:35:48.492Z,2.12
2023-01-25T10:38:49.725Z,2.21
2023-01-25T10:41:42.639Z,2.12
2023-01-25T10:44:30.435Z,2.07
2023-01-25T10:47:25.357Z,1.88
2023-01-25T10:50:43.554Z,2.32
2023-01-25T10:53:35.222Z,2.26
2023-01-25T10:56:26.880Z,2.31
2023-01-25T10:59:26.383Z,2.14
2023-01-25T11:02:35.628Z,2.27
2023-01-25T11:05:38.162Z,2.32
2023-01-25T11:08:36.332Z,2.46
2023-01-25T11:11:37.111Z,2.27
2023-01-25T11:14:27.550Z,2.26
2023-01-25T11:17:28.134Z,2.29
2023-01-25T11:20:20.763Z,2.25
2023-01-25T11:23:22.173Z,2.41
2023-01-25T11:26:18.576Z,2.50
2023-01-25T11:29:26.530Z,2.49
2023-01-25T11:32:22.879Z,2.20
2023-01-25T11:35:29.223Z,2.22
2023-01-25T11:38:23.549Z,2.26
2023-01-25T11:41:24.021Z,2.34
2023-01-25T11:44:17.641Z,2.41
2023-01-25T11:47:19.207Z,2.34
2023-01-25T11:50:15.615Z,2.51
2023-01-25T11:53:45.227Z,2.59
2023-01-25T11:56:42.134Z,2.65
2023-01-25T12:00:13.042Z,2.61
2023-01-25T12:03:25.085Z,2.57
2023-01-25T12:06:22.129Z,2.41
2023-01-25T12:09:33.759Z,2.20
2023-01-25T12:13:03.217Z,2.52
2023-01-25T12:15:58.989Z,2.42
2023-01-25T12:19:08.089Z,2.49
2023-01-25T12:22:30.918Z,2.61
2023-01-25T12:25:21.307Z,2.65
2023-01-25T12:28:48.486Z,1.95
2023-01-25T12:31:36.087Z,2.31
2023-01-25T12:34:33.702Z,2.40
2023-01-25T12:37:39.535Z,2.36
2023-01-25T12:40:50.876Z,2.18
2023-01-25T12:43:45.663Z,2.21
2023-01-25T12:46:42.880Z,2.32
2023-01-25T12:49:36.987Z,2.34
2023-01-25T12:52:33.499Z,2.16
2023-01-25T12:55:21.527Z,2.30
2023-01-25T12:58:19.756Z,2.19
2023-01-25T13:01:15.220Z,2.31
2023-01-25T13:04:21.043Z,2.34
2023-01-25T13:07:11.475Z,2.41
2023-01-25T13:10:22.537Z,2.21
2023-01-25T13:13:29.339Z,2.27
2023-01-25T13:16:29.154Z,2.20
2023-01-25T13:19:31.932Z,2.28
2023-01-25T13:22:45.589Z,2.19
2023-01-25T13:25:34.254Z,2.24
2023-01-25T13:28:48.085Z,2.41
2023-01-25T13:31:50.897Z,2.16
2023-01-25T13:34:42.854Z,2.38
2023-01-25T13:37:34.831Z,2.34
2023-01-25T13:40:32.520Z,2.00
2023-01-25T13:43:22.791Z,1.94
2023-01-25T13:46:14.103Z,2.10
2023-01-25T13:49:05.004Z,1.99
2023-01-25T13:51:52.851Z,1.85
2023-01-25T13:54:44.945Z,2.07
2023-01-25T13:57:34.937Z,2.10
2023-01-25T14:00:22.959Z,2.07
2023-01-25T14:03:12.254Z,1.76
2023-01-25T14:06:02.969Z,1.91
2023-01-25T14:08:53.046Z,2.01
2023-01-25T14:12:03.019Z,1.94
2023-01-25T14:14:50.809Z,2.02
2023-01-25T14:17:38.445Z,2.03
2023-01-25T14:20:26.174Z,2.08
2023-01-25T14:23:21.489Z,1.85
2023-01-25T14:26:28.766Z,1.77
2023-01-25T14:29:35.927Z,1.81
2023-01-25T14:32:26.620Z,1.80
2023-01-25T14:36:11.636Z,1.84
2023-01-25T14:38:54.628Z,1.76
2023-01-25T14:41:51.694Z,1.82
2023-01-25T14:44:47.338Z,1.72
2023-01-25T14:47:35.879Z,1.77
2023-01-25T14:50:37.214Z,1.74
2023-01-25T14:53:26.126Z,1.62
2023-01-25T14:56:27.359Z,1.55
2023-01-25T14:59:54.961Z,1.61
2023-01-25T15:02:56.510Z,1.65
2023-01-25T15:05:48.020Z,1.64
2023-01-25T15:08:40.692Z,1.46
2023-01-25T15:11:38.911Z,1.55
2023-01-25T15:14:27.978Z,1.59
2023-01-25T15:17:37.221Z,1.43
2023-01-25T15:20:41.993Z,1.49
2023-01-25T15:23:30.295Z,1.44
2023-01-25T15:26:29.466Z,1.31
2023-01-25T15:29:22.607Z,1.30
2023-01-25T15:32:20.946Z,1.30
2023-01-25T15:35:16.006Z,1.26
2023-01-25T15:38:03.687Z,1.31
2023-01-25T15:40:51.924Z,1.24
2023-01-25T15:43:40.480Z,1.20
2023-01-25T15:46:30.751Z,1.25
2023-01-25T15:49:24.485Z,1.34
2023-01-25T15:52:12.318Z,1.20
2023-01-25T15:55:02.139Z,1.08
2023-01-25T15:57:50.200Z,1.09
2023-01-25T16:00:37.890Z,1.02
2023-01-25T16:03:25.632Z,1.03
2023-01-25T16:06:27.844Z,1.04
2023-01-25T16:09:22.944Z,1.17
2023-01-25T16:12:10.810Z,1.01
2023-01-25T16:14:59.390Z,0.94
2023-01-25T16:17:47.166Z,1.05
2023-01-25T16:20:34.853Z,1.02
2023-01-25T16:23:22.618Z,1.00
2023-01-25T16:26:49.311Z,0.98
2023-01-25T16:29:37.134Z,0.69
2023-01-25T16:32:24.836Z,0.89
2023-01-25T16:35:13.697Z,0.80
2023-01-25T16:38:01.383Z,0.56
2023-01-25T16:40:50.833Z,0.38
2023-01-25T16:43:42.857Z,0.81
2023-01-25T16:46:31.789Z,0.79
2023-01-25T16:49:22.644Z,0.70
2023-01-25T16:52:12.467Z,0.71
2023-01-25T16:55:00.187Z,0.64
2023-01-25T16:57:54.292Z,0.65
2023-01-25T17:00:42.150Z,0.61
2023-01-25T17:03:29.889Z,0.66
2023-01-25T17:06:23.629Z,0.67
2023-01-25T17:09:23.033Z,0.62
2023-01-25T17:12:13.510Z,0.37
2023-01-25T17:15:04.053Z,0.65
2023-01-25T17:17:52.196Z,0.57
2023-01-25T17:20:42.946Z,0.46
2023-01-25T17:23:40.762Z,0.55
2023-01-25T17:26:31.324Z,0.64
2023-01-25T17:29:19.154Z,0.49
2023-01-25T17:32:07.176Z,0.50
2023-01-25T17:34:55.059Z,0.49
2023-01-25T17:37:43.328Z,0.47
2023-01-25T17:40:33.675Z,0.51
2023-01-25T17:43:22.157Z,0.52
2023-01-25T17:46:25.646Z,0.51
2023-01-25T17:49:17.921Z,0.48
2023-01-25T17:52:05.822Z,0.37
2023-01-25T17:54:55.382Z,0.49
2023-01-25T17:57:43.706Z,0.51
2023-01-25T18:00:32.284Z,0.44
2023-01-25T18:03:20.062Z,0.40
2023-01-25T18:06:09.782Z,0.38
2023-01-25T18:09:02.736Z,-0.02
2023-01-25T18:11:51.181Z,0.47
2023-01-25T18:14:42.600Z,0.36
2023-01-25T18:17:38.550Z,0.38
2023-01-25T18:20:26.535Z,0.38
2023-01-25T18:23:14.361Z,0.32
2023-01-25T18:26:02.539Z,0.37
2023-01-25T18:28:52.083Z,0.27
2023-01-25T18:31:39.921Z,0.35
2023-01-25T18:34:27.743Z,-0.02
2023-01-25T18:37:20.963Z,0.18
2023-01-25T18:40:11.977Z,0.50
2023-01-25T18:43:04.215Z,0.41
2023-01-25T18:45:57.256Z,0.32
2023-01-25T18:48:47.385Z,0.33
2023-01-25T18:51:48.624Z,0.17
2023-01-25T18:54:44.534Z,0.08
2023-01-25T18:57:32.729Z,0.06
2023-01-25T19:00:20.667Z,0.44
2023-01-25T19:03:09.068Z,0.25
2023-01-25T19:05:58.413Z,0.24
2023-01-25T19:08:52.108Z,0.22
2023-01-25T19:11:42.230Z,0.17
2023-01-25T19:14:31.961Z,0.22
2023-01-25T19:17:19.764Z,0.22
2023-01-25T19:20:08.380Z,0.26
2023-01-25T19:22:58.107Z,0.27
2023-01-25T19:25:47.725Z,0.12
2023-01-25T19:28:35.498Z,0.13
2023-01-25T19:31:25.712Z,0.15
2023-01-25T19:34:13.836Z,0.20
2023-01-25T19:37:01.684Z,0.18
2023-01-25T19:39:49.409Z,0.10
2023-01-25T19:42:37.211Z,0.06
2023-01-25T19:45:27.872Z,0.13
2023-01-25T19:48:17.756Z,0.08
2023-01-25T19:51:09.106Z,0.12
2023-01-25T19:54:00.306Z,-0.05
2023-01-25T19:56:52.156Z,-0.06
2023-01-25T19:59:39.883Z,0.08
2023-01-25T20:02:28.191Z,0.00
2023-01-25T20:05:16.064Z,0.05
2023-01-25T20:08:03.793Z,0.09
2023-01-25T20:10:51.699Z,0.10
2023-01-25T20:13:43.348Z,0.16
2023-01-25T20:16:33.025Z,0.16
2023-01-25T20:19:22.064Z,0.19
2023-01-25T20:22:10.467Z,0.27
2023-01-25T20:25:03.050Z,0.10
2023-01-25T20:27:50.969Z,0.10
2023-01-25T20:30:38.575Z,-0.11
2023-01-25T20:33:26.333Z,0.13
2023-01-25T20:36:14.149Z,0.17
2023-01-25T20:39:02.131Z,0.14
2023-01-25T20:41:53.616Z,0.14
2023-01-25T20:44:43.678Z,0.08
2023-01-25T20:47:33.107Z,0.11
2023-01-25T20:50:23.189Z,0.07
2023-01-25T20:53:10.726Z,0.04
2023-01-25T20:55:59.200Z,0.11
2023-01-25T20:58:50.742Z,0.09
2023-01-25T21:01:40.863Z,0.08
2023-01-25T21:04:28.475Z,0.08
2023-01-25T21:07:16.340Z,-0.19
2023-01-25T21:10:06.723Z,0.12
2023-01-25T21:12:57.222Z,0.02
2023-01-25T21:16:17.964Z,0.10
2023-01-25T21:19:11.523Z,-0.40
2023-01-25T21:22:00.197Z,-0.33
2023-01-25T21:24:47.923Z,-0.17
2023-01-25T21:27:35.523Z,0.06
2023-01-25T21:30:26.024Z,0.15
2023-01-25T21:33:13.618Z,0.10
2023-01-25T21:36:01.986Z,0.01
2023-01-25T21:38:51.330Z,0.14
2023-01-25T21:41:39.123Z,0.12
2023-01-25T21:44:45.167Z,-0.02
2023-01-25T21:47:33.440Z,-0.12
2023-01-25T21:50:39.735Z,-0.07
2023-01-25T21:53:27.500Z,-0.09
2023-01-25T21:56:17.649Z,-0.01
2023-01-25T21:59:05.355Z,-0.10
2023-01-25T22:01:54.416Z,0.02
2023-01-25T22:04:42.199Z,0.01
2023-01-25T22:07:35.395Z,-0.01
2023-01-25T22:10:23.413Z,-0.13
2023-01-25T22:13:13.095Z,-0.12
2023-01-25T22:16:01.808Z,0.07
2023-01-25T22:18:50.890Z,-0.02
2023-01-25T22:21:38.718Z,0.06
2023-01-25T22:24:26.377Z,-0.01
2023-01-25T22:27:41.272Z,-0.10
2023-01-25T22:30:31.309Z,-0.13
2023-01-25T22:33:21.889Z,-0.23
2023-01-25T22:36:13.655Z,-0.24
2023-01-25T22:39:01.527Z,-0.17
2023-01-25T22:41:49.319Z,-0.16
2023-01-25T22:44:37.145Z,-0.17
2023-01-25T22:47:24.805Z,-0.24
2023-01-25T22:50:12.889Z,-0.41
2023-01-25T22:53:00.655Z,-0.22
2023-01-25T22:55:50.341Z,-0.31
2023-01-25T22:58:42.441Z,-0.32
2023-01-25T23:01:31.405Z,-0.22
2023-01-25T23:04:18.964Z,-0.12
2023-01-25T23:07:18.833Z,-0.48
2023-01-25T23:10:09.905Z,-0.21
2023-01-25T23:12:57.906Z,-0.23
2023-01-25T23:15:45.548Z,-0.27
2023-01-25T23:18:52.338Z,-0.21
2023-01-25T23:21:42.453Z,-0.30
2023-01-25T23:24:32.856Z,-0.21
2023-01-25T23:27:20.371Z,-0.17
2023-01-25T23:30:09.959Z,-0.21
2023-01-25T23:32:58.158Z,-0.46
2023-01-25T23:35:45.879Z,-0.32
2023-01-25T23:38:33.451Z,-0.25
2023-01-25T23:41:23.117Z,-0.20
2023-01-25T23:44:13.023Z,-0.19
2023-01-25T23:47:01.939Z,-0.41
2023-01-25T23:49:49.481Z,-0.31
2023-01-25T23:52:40.164Z,-0.30
2023-01-25T23:55:27.731Z,-0.32
2023-01-25T23:58:15.539Z,-0.32
